Time;durP1;ratioP1;P1;durP2;ratioP2;P2;SDS_P1;SDS_P2;PMS_P1;PMS_P2;Temp;Humidity;BMP_temperature;BMP_pressure;BME280_temperature;BME280_humidity;BME280_pressure;Samples;Min_cycle;Max_cycle;Signal;HPM_P1;HPM_P2
2022/08/07 00:01:36;;;;;;;1.05;0.90;;;;;;;24.18;51.90;94059.16;6125425;23;20080;-91
2022/08/07 00:04:03;;;;;;;1.25;0.80;;;;;;;24.18;51.66;94058.41;6091157;23;20029;-93
2022/08/07 00:06:28;;;;;;;1.20;0.90;;;;;;;24.16;51.67;94056.16;6099790;23;20022;-91
2022/08/07 00:08:53;;;;;;;0.93;0.77;;;;;;;24.16;51.56;94052.66;6086652;23;20017;-92
2022/08/07 00:11:19;;;;;;;1.30;0.80;;;;;;;24.17;51.76;94054.16;6101716;23;20009;-91
2022/08/07 00:13:46;;;;;;;0.60;0.60;;;;;;;24.15;51.86;94057.44;6081223;23;20022;-90
2022/08/07 00:16:12;;;;;;;0.70;0.70;;;;;;;24.14;51.80;94050.44;6075996;23;20072;-91
2022/08/07 00:18:37;;;;;;;0.60;0.60;;;;;;;24.16;51.69;94061.69;6126175;23;20025;-91
2022/08/07 00:21:04;;;;;;;0.70;0.60;;;;;;;24.14;51.74;94044.16;6107668;23;20014;-91
2022/08/07 00:23:30;;;;;;;0.80;0.70;;;;;;;24.14;51.57;94052.47;6123537;23;20013;-90
2022/08/07 00:25:56;;;;;;;0.82;0.60;;;;;;;24.15;51.80;94051.19;6062628;23;20025;-91
2022/08/07 00:28:21;;;;;;;1.13;0.70;;;;;;;24.14;51.79;94039.38;6096060;23;20076;-90
2022/08/07 00:30:47;;;;;;;1.05;0.70;;;;;;;24.14;51.49;94044.16;6090082;23;20021;-91
2022/08/07 00:33:12;;;;;;;0.70;0.70;;;;;;;24.15;51.68;94054.69;6124565;23;20449;-91
2022/08/07 00:35:38;;;;;;;1.73;0.80;;;;;;;24.14;51.62;94042.16;6086532;23;20465;-90
2022/08/07 00:38:03;;;;;;;0.63;0.63;;;;;;;24.12;51.65;94055.00;6123086;23;20322;-92
2022/08/07 00:40:29;;;;;;;0.70;0.63;;;;;;;24.12;51.81;94057.78;6145231;23;20017;-91
2022/08/07 00:42:55;;;;;;;0.95;0.77;;;;;;;24.13;51.95;94062.03;6116395;23;20097;-91
2022/08/07 00:45:21;;;;;;;0.70;0.60;;;;;;;24.12;51.59;94066.81;6124325;23;20024;-91
2022/08/07 00:47:47;;;;;;;0.70;0.60;;;;;;;24.12;51.66;94066.81;6109081;23;20022;-93
2022/08/07 00:50:12;;;;;;;0.73;0.60;;;;;;;24.12;51.45;94069.56;6100724;23;20068;-90
2022/08/07 00:52:38;;;;;;;0.90;0.80;;;;;;;24.14;51.63;94071.78;6088275;23;20021;-91
2022/08/07 00:55:04;;;;;;;1.02;0.90;;;;;;;24.13;51.90;94067.53;6121251;23;20010;-91
2022/08/07 00:57:29;;;;;;;0.80;0.70;;;;;;;24.12;51.42;94063.28;6096253;23;20041;-91
2022/08/07 00:59:55;;;;;;;0.60;0.50;;;;;;;24.12;51.77;94068.81;6081707;23;20018;-91
2022/08/07 01:02:22;;;;;;;0.73;0.70;;;;;;;24.13;51.54;94064.78;6083961;23;20021;-92
2022/08/07 01:04:48;;;;;;;0.95;0.85;;;;;;;24.12;51.65;94071.56;6113880;23;20021;-92
2022/08/07 01:07:13;;;;;;;0.75;0.60;;;;;;;24.11;51.42;94072.84;6124302;23;20005;-90
2022/08/07 01:09:39;;;;;;;0.80;0.60;;;;;;;24.08;51.72;94071.91;6114883;23;20013;-93
2022/08/07 01:12:04;;;;;;;0.55;0.50;;;;;;;24.10;51.65;94074.13;6096810;23;20547;-91
2022/08/07 01:14:30;;;;;;;1.63;0.70;;;;;;;24.10;51.73;94072.09;6125000;23;20483;-91
2022/08/07 01:16:56;;;;;;;0.70;0.50;;;;;;;24.12;51.62;94066.06;6110640;23;20488;-90
2022/08/07 01:19:21;;;;;;;0.75;0.68;;;;;;;24.10;51.73;94069.34;6096882;23;20352;-90
2022/08/07 01:21:48;;;;;;;1.30;0.70;;;;;;;24.11;51.71;94065.31;6085544;23;20025;-91
2022/08/07 01:24:13;;;;;;;0.52;0.52;;;;;;;24.09;51.89;94070.63;6101164;23;20036;-91
2022/08/07 01:26:38;;;;;;;0.73;0.70;;;;;;;24.09;51.40;94064.34;6096537;23;20457;-90
2022/08/07 01:29:04;;;;;;;1.27;0.70;;;;;;;24.09;51.49;94062.34;6124949;23;20032;-91
2022/08/07 01:31:32;;;;;;;0.60;0.60;;;;;;;24.08;51.68;94062.88;6090814;23;20018;-92
2022/08/07 01:33:58;;;;;;;0.77;0.68;;;;;;;24.08;51.77;94062.88;6118914;23;20049;-91
2022/08/07 01:36:24;;;;;;;1.20;0.50;;;;;;;24.07;51.74;94053.09;6105470;23;20488;-91
2022/08/07 01:38:50;;;;;;;0.70;0.63;;;;;;;24.07;51.54;94045.56;6102392;23;20083;-93
2022/08/07 01:41:15;;;;;;;2.78;0.80;;;;;;;24.08;51.43;94051.81;6104543;23;20017;-90
2022/08/07 01:43:41;;;;;;;1.20;0.70;;;;;;;24.08;51.49;94046.28;6102142;23;20044;-91
2022/08/07 01:46:06;;;;;;;1.13;0.80;;;;;;;24.06;51.70;94043.31;6102121;23;20409;-91
2022/08/07 01:48:33;;;;;;;1.15;0.80;;;;;;;24.06;51.58;94037.78;6104413;23;20036;-90
2022/08/07 01:51:02;;;;;;;1.05;0.73;;;;;;;24.07;51.55;94045.56;6125985;23;20024;-90
2022/08/07 01:53:28;;;;;;;0.75;0.75;;;;;;;24.05;51.60;94042.56;6101737;23;20040;-91
2022/08/07 01:55:57;;;;;;;0.80;0.60;;;;;;;24.07;51.48;94031.00;6102449;23;20067;-91
2022/08/07 01:58:22;;;;;;;0.63;0.63;;;;;;;24.06;51.39;94029.50;6104907;23;20449;-91
2022/08/07 02:00:51;;;;;;;0.85;0.70;;;;;;;24.06;51.33;94027.50;6100874;23;20027;-91
2022/08/07 02:03:19;;;;;;;1.45;0.77;;;;;;;24.06;51.50;94037.78;6120403;23;20013;-92
2022/08/07 02:05:48;;;;;;;1.38;0.73;;;;;;;24.06;51.61;94037.78;6102462;23;20742;-91
2022/08/07 02:08:15;;;;;;;1.30;0.90;;;;;;;24.04;51.49;94024.50;6105008;23;20228;-91
2022/08/07 02:10:40;;;;;;;0.70;0.50;;;;;;;24.05;51.44;94026.00;6101472;23;20348;-90
2022/08/07 02:13:06;;;;;;;1.13;0.70;;;;;;;24.04;51.56;94037.59;6129595;23;20440;-91
2022/08/07 02:15:31;;;;;;;1.40;0.70;;;;;;;24.04;51.44;94034.81;6103076;23;20020;-91
2022/08/07 02:17:57;;;;;;;0.77;0.77;;;;;;;24.05;51.44;94025.25;6153172;23;20028;-91
2022/08/07 02:20:22;;;;;;;2.33;0.90;;;;;;;24.04;51.38;94030.03;6101955;23;20092;-91
2022/08/07 02:22:48;;;;;;;0.73;0.73;;;;;;;24.05;51.32;94026.00;6125368;23;20023;-91
2022/08/07 02:25:14;;;;;;;1.08;0.57;;;;;;;24.04;51.37;94027.28;6154556;23;20032;-91
2022/08/07 02:27:40;;;;;;;0.60;0.60;;;;;;;24.05;51.33;94026.00;6128453;23;20101;-91
2022/08/07 02:30:06;;;;;;;0.70;0.65;;;;;;;24.04;51.51;94016.22;6099381;23;20279;-91
2022/08/07 02:32:32;;;;;;;0.90;0.75;;;;;;;24.03;51.23;94016.78;6120382;23;20028;-91
2022/08/07 02:34:57;;;;;;;0.82;0.65;;;;;;;24.03;51.49;94014.03;6102611;23;20010;-91
2022/08/07 02:37:23;;;;;;;1.30;0.65;;;;;;;24.05;51.27;94009.44;6105078;23;20032;-91
2022/08/07 02:39:48;;;;;;;0.70;0.70;;;;;;;24.04;51.33;94016.22;6107017;23;20025;-91
2022/08/07 02:42:14;;;;;;;0.80;0.70;;;;;;;24.03;51.40;94005.75;6106572;23;20421;-90
2022/08/07 02:44:40;;;;;;;1.15;0.70;;;;;;;24.04;51.45;94004.44;6099835;23;20021;-91
2022/08/07 02:47:05;;;;;;;0.88;0.80;;;;;;;24.03;51.18;94000.97;6098524;23;20068;-91
2022/08/07 02:49:31;;;;;;;0.90;0.80;;;;;;;24.01;51.41;94008.28;6153224;23;20017;-91
2022/08/07 02:51:57;;;;;;;0.82;0.70;;;;;;;24.03;51.37;94011.25;6098274;23;20020;-90
2022/08/07 02:54:22;;;;;;;0.70;0.70;;;;;;;24.02;51.17;94007.75;6126083;23;20064;-92
2022/08/07 02:56:48;;;;;;;0.73;0.70;;;;;;;24.02;51.35;93999.47;6104816;23;20013;-91
2022/08/07 02:59:16;;;;;;;1.08;0.80;;;;;;;24.02;51.34;93996.72;6126104;23;20013;-90
2022/08/07 03:01:41;;;;;;;0.57;0.47;;;;;;;24.02;51.39;93995.97;6102823;23;20096;-91
2022/08/07 03:04:08;;;;;;;0.85;0.60;;;;;;;24.02;51.27;93995.97;6153708;23;20021;-90
2022/08/07 03:06:33;;;;;;;1.10;0.70;;;;;;;24.01;51.05;93997.25;6103358;23;20392;-91
2022/08/07 03:09:03;;;;;;;2.38;0.65;;;;;;;24.00;51.27;93990.97;6126943;23;20020;-93
2022/08/07 03:11:28;;;;;;;0.88;0.60;;;;;;;24.02;51.58;94007.03;6102276;23;20017;-91
2022/08/07 03:13:54;;;;;;;0.50;0.50;;;;;;;24.01;51.28;94000.00;6152699;23;20028;-92
2022/08/07 03:16:20;;;;;;;2.50;0.70;;;;;;;24.00;51.17;94004.03;6095014;23;20021;-91
2022/08/07 03:18:45;;;;;;;1.23;0.93;;;;;;;24.00;51.18;93990.22;6100422;23;20024;-91
2022/08/07 03:21:10;;;;;;;1.13;0.73;;;;;;;23.99;51.09;93989.50;6121206;23;20025;-91
2022/08/07 03:23:37;;;;;;;0.88;0.80;;;;;;;23.98;51.23;93982.47;6105514;23;20022;-91
2022/08/07 03:26:03;;;;;;;0.93;0.90;;;;;;;24.01;51.28;93991.72;6130640;23;20321;-91
2022/08/07 03:28:29;;;;;;;0.55;0.55;;;;;;;24.00;51.11;93993.00;6110547;23;20017;-91
2022/08/07 03:31:17;;;;;;;0.60;0.60;;;;;;;23.99;51.25;93985.97;6103869;23;20032;-91
2022/08/07 03:33:39;;;;;;;0.60;0.50;;;;;;;24.00;51.27;93984.72;6159027;23;20469;-91
2022/08/07 03:36:05;;;;;;;1.25;0.70;;;;;;;23.99;51.38;93997.03;6124646;23;20079;-90
2022/08/07 03:38:34;;;;;;;1.52;0.70;;;;;;;23.98;50.96;93982.47;6155212;23;20047;-91
2022/08/07 03:41:00;;;;;;;1.05;0.73;;;;;;;23.97;51.43;93983.75;6148421;23;20013;-91
2022/08/07 03:43:25;;;;;;;1.30;0.80;;;;;;;23.99;51.30;93986.72;6141412;23;20028;-91
2022/08/07 03:45:51;;;;;;;1.83;0.85;;;;;;;23.98;51.33;93982.47;6131344;23;20481;-92
2022/08/07 03:48:16;;;;;;;0.82;0.73;;;;;;;23.97;51.10;93981.00;6103975;23;20453;-91
2022/08/07 03:50:42;;;;;;;1.08;0.70;;;;;;;23.97;51.28;93969.19;6155182;23;20020;-91
2022/08/07 03:53:08;;;;;;;0.98;0.77;;;;;;;23.97;51.14;93978.22;6096344;23;20020;-91
2022/08/07 03:55:33;;;;;;;1.02;0.63;;;;;;;23.97;51.44;93974.72;6154440;23;20016;-91
2022/08/07 03:57:58;;;;;;;1.42;0.77;;;;;;;23.97;51.29;93967.19;6127308;23;20020;-91
2022/08/07 04:00:24;;;;;;;0.80;0.70;;;;;;;23.97;51.22;93967.19;6103553;23;20013;-91
2022/08/07 04:02:49;;;;;;;1.20;0.90;;;;;;;23.96;51.16;93970.47;6152713;23;20021;-90
2022/08/07 04:05:18;;;;;;;1.00;0.70;;;;;;;23.97;51.57;93969.19;6105316;23;20028;-91
2022/08/07 04:07:45;;;;;;;0.68;0.60;;;;;;;23.95;51.19;93969.00;6127936;23;20044;-90
2022/08/07 04:10:10;;;;;;;0.98;0.70;;;;;;;23.96;51.12;93965.69;6108198;23;20024;-91
2022/08/07 04:12:36;;;;;;;1.27;0.80;;;;;;;23.93;51.25;93973.03;6104910;23;20013;-91
2022/08/07 04:15:01;;;;;;;0.70;0.70;;;;;;;23.94;51.23;93973.78;6106495;23;20658;-91
2022/08/07 04:17:26;;;;;;;1.15;0.90;;;;;;;23.97;51.29;93983.75;6156176;23;20370;-91
2022/08/07 04:19:52;;;;;;;0.80;0.68;;;;;;;23.97;51.17;93980.25;6102822;23;20036;-90
2022/08/07 04:22:18;;;;;;;1.38;1.10;;;;;;;24.00;51.23;93988.22;6155659;23;20021;-91
2022/08/07 04:24:44;;;;;;;1.15;0.90;;;;;;;24.04;50.89;93987.88;6156243;23;20462;-91
2022/08/07 04:27:10;;;;;;;1.70;0.80;;;;;;;24.07;50.81;93981.28;6104939;23;20017;-91
2022/08/07 04:29:35;;;;;;;0.55;0.55;;;;;;;24.06;50.61;93990.84;6120489;23;20388;-91
2022/08/07 04:32:01;;;;;;;1.40;0.85;;;;;;;24.08;50.68;93991.06;6129133;23;20017;-91
2022/08/07 04:34:26;;;;;;;0.50;0.50;;;;;;;24.09;50.75;93992.53;6104000;23;20024;-91
2022/08/07 04:36:51;;;;;;;0.90;0.60;;;;;;;24.07;50.88;93998.59;6104136;23;20017;-91
2022/08/07 04:39:17;;;;;;;1.25;0.70;;;;;;;24.07;50.74;93995.09;6091905;23;20013;-92
2022/08/07 04:41:42;;;;;;;1.52;0.88;;;;;;;24.08;50.95;93991.06;6105777;23;20031;-90
2022/08/07 04:44:08;;;;;;;0.80;0.50;;;;;;;24.05;50.93;93992.84;6150400;23;20084;-92
2022/08/07 04:47:06;;;;;;;0.70;0.70;;;;;;;24.07;50.96;93986.81;6107822;23;20021;-92
2022/08/07 04:49:56;;;;;;;1.90;0.80;;;;;;;24.05;50.82;93989.34;6130032;23;20054;-93
2022/08/07 04:52:40;;;;;;;0.50;0.50;;;;;;;24.06;50.83;93986.06;6105517;23;20016;-91
2022/08/07 04:55:20;;;;;;;0.90;0.73;;;;;;;24.06;50.90;93988.06;6176123;23;20024;-91
2022/08/07 04:57:50;;;;;;;0.60;0.60;;;;;;;24.08;50.85;93991.78;6155321;23;20013;-92
2022/08/07 05:00:19;;;;;;;0.95;0.40;;;;;;;24.09;50.75;93992.53;6106256;23;20025;-91
2022/08/07 05:02:56;;;;;;;1.40;0.50;;;;;;;24.11;50.67;93987.22;6104231;23;20021;-92
2022/08/07 05:05:25;;;;;;;0.93;0.60;;;;;;;24.09;50.85;93998.06;6098012;23;20048;-92
2022/08/07 05:08:03;;;;;;;0.85;0.52;;;;;;;24.12;50.52;93997.75;6105206;23;20013;-91
2022/08/07 05:10:34;;;;;;;0.55;0.52;;;;;;;24.10;50.72;93997.53;6107591;23;20128;-90
2022/08/07 05:13:09;;;;;;;0.80;0.73;;;;;;;24.07;50.48;94001.34;6095555;23;20017;-91
2022/08/07 05:15:39;;;;;;;1.10;0.73;;;;;;;24.08;50.86;94000.06;6106264;23;20032;-91
2022/08/07 05:18:06;;;;;;;;;;;;;;;24.09;50.78;93992.53;6104671;23;20023;-91
2022/08/07 05:20:40;;;;;;;0.50;0.32;;;;;;;24.09;50.76;93998.06;6155916;23;19963;-91
2022/08/07 05:23:31;;;;;;;0.75;0.50;;;;;;;24.06;50.81;93994.34;6099777;23;20009;-91
2022/08/07 05:25:57;;;;;;;0.52;0.45;;;;;;;24.07;50.56;93984.03;6129225;23;20024;-91
2022/08/07 05:28:22;;;;;;;0.63;0.60;;;;;;;24.07;50.73;93989.56;6105126;23;20017;-90
2022/08/07 05:30:48;;;;;;;1.63;0.60;;;;;;;24.09;50.79;93993.28;6154636;23;20088;-91
2022/08/07 05:33:14;;;;;;;0.82;0.57;;;;;;;24.12;50.56;93997.00;6105496;23;20024;-91
2022/08/07 05:35:39;;;;;;;0.50;0.50;;;;;;;24.10;50.49;93992.00;6150988;23;20114;-92
2022/08/07 05:38:05;;;;;;;0.57;0.50;;;;;;;24.13;51.07;93999.22;6148147;23;20453;-92
2022/08/07 05:40:34;;;;;;;0.70;0.50;;;;;;;24.13;50.58;94002.00;6107241;23;20021;-91
2022/08/07 05:43:00;;;;;;;0.57;0.40;;;;;;;24.14;50.27;94002.72;6104788;23;20100;-91
2022/08/07 05:45:25;;;;;;;0.45;0.45;;;;;;;24.16;50.63;93997.41;6148594;23;20345;-92
2022/08/07 05:47:51;;;;;;;0.70;0.50;;;;;;;24.17;50.52;93999.66;6152989;23;20037;-92
2022/08/07 05:50:17;;;;;;;0.73;0.57;;;;;;;24.19;50.33;94005.38;6103999;23;20087;-92
2022/08/07 05:52:42;;;;;;;1.10;0.57;;;;;;;24.20;50.22;93998.59;6154294;23;20025;-93
2022/08/07 05:55:08;;;;;;;0.80;0.60;;;;;;;24.22;50.11;94000.81;6153516;23;20441;-91
2022/08/07 05:57:35;;;;;;;0.60;0.60;;;;;;;24.22;50.43;94004.31;6153650;23;20043;-92
2022/08/07 06:00:04;;;;;;;0.68;0.50;;;;;;;24.23;50.33;94014.09;6106675;23;20444;-92
2022/08/07 06:02:30;;;;;;;0.40;0.40;;;;;;;24.23;50.12;94005.06;6101945;23;20151;-91
2022/08/07 06:04:58;;;;;;;0.68;0.50;;;;;;;24.22;50.18;94009.09;6093808;23;20452;-91
2022/08/07 06:07:23;;;;;;;0.60;0.40;;;;;;;24.26;50.16;94009.53;6105601;23;20056;-91
2022/08/07 06:09:49;;;;;;;0.68;0.40;;;;;;;24.26;50.31;94020.56;6122964;23;20016;-91
2022/08/07 06:12:14;;;;;;;1.08;0.50;;;;;;;24.29;50.14;94022.28;6154802;23;20049;-91
2022/08/07 06:14:41;;;;;;;0.40;0.40;;;;;;;24.29;50.29;94013.25;6124870;23;20024;-91
2022/08/07 06:17:07;;;;;;;0.40;0.40;;;;;;;24.29;50.11;94013.97;6096943;23;20017;-91
2022/08/07 06:19:33;;;;;;;0.45;0.40;;;;;;;24.31;50.05;94010.69;6101861;23;20141;-91
2022/08/07 06:21:58;;;;;;;0.85;0.50;;;;;;;24.32;50.05;94014.94;6101861;23;20189;-91
2022/08/07 06:24:24;;;;;;;0.68;0.50;;;;;;;24.33;49.86;94013.66;6089692;23;20341;-92
2022/08/07 06:26:49;;;;;;;0.60;0.47;;;;;;;24.33;50.18;94016.41;6101828;23;20017;-91
2022/08/07 06:29:14;;;;;;;0.47;0.47;;;;;;;24.34;49.90;94013.13;6145740;23;20472;-91
2022/08/07 06:31:40;;;;;;;0.40;0.40;;;;;;;24.35;50.02;94016.63;6102192;23;20024;-91
2022/08/07 06:34:06;;;;;;;0.77;0.55;;;;;;;24.37;50.05;94003.03;6105269;23;20013;-91
2022/08/07 06:36:34;;;;;;;0.75;0.45;;;;;;;24.37;49.85;94008.56;6123660;23;20152;-92
2022/08/07 06:39:00;;;;;;;0.95;0.60;;;;;;;24.37;50.10;94014.81;6104950;23;20078;-91
2022/08/07 06:41:40;;;;;;;0.45;0.30;;;;;;;24.35;49.91;94011.84;6104527;23;20017;-92
2022/08/07 06:44:06;;;;;;;0.40;0.40;;;;;;;24.39;49.91;94006.75;6104219;23;20318;-91
2022/08/07 06:46:35;;;;;;;1.02;0.50;;;;;;;24.39;49.66;94006.00;6154818;23;20025;-92
2022/08/07 06:49:00;;;;;;;0.47;0.47;;;;;;;24.39;49.82;94006.00;6150910;23;20025;-91
2022/08/07 06:51:27;;;;;;;0.50;0.50;;;;;;;24.41;49.77;94015.25;6120309;23;20389;-92
2022/08/07 06:53:55;;;;;;;0.55;0.55;;;;;;;24.44;49.91;94014.16;6104313;23;20021;-91
2022/08/07 06:56:38;;;;;;;0.93;0.60;;;;;;;24.43;49.64;94015.44;6106729;23;20009;-91
2022/08/07 06:59:06;;;;;;;77.82;5.90;;;;;;;24.46;49.48;94024.69;6161461;23;20017;-91
2022/08/07 07:01:34;;;;;;;23.75;1.48;;;;;;;24.52;49.25;94023.28;6129199;23;20017;-91
2022/08/07 07:03:59;;;;;;;3.08;0.70;;;;;;;24.52;48.95;94022.53;6130158;23;20102;-92
2022/08/07 07:06:25;;;;;;;8.65;0.77;;;;;;;24.54;48.33;94019.97;6105211;23;20017;-93
2022/08/07 07:08:50;;;;;;;2.80;0.65;;;;;;;24.57;49.06;94018.91;6128436;23;20021;-92
2022/08/07 07:11:16;;;;;;;3.92;0.50;;;;;;;24.53;49.52;94015.72;6139008;23;20396;-92
2022/08/07 07:13:45;;;;;;;3.25;0.63;;;;;;;24.54;49.48;94012.41;6154255;23;20083;-91
2022/08/07 07:16:16;;;;;;;4.55;0.77;;;;;;;24.52;49.28;94014.22;6103134;23;20101;-92
2022/08/07 07:18:45;;;;;;;7.75;1.02;;;;;;;24.52;49.25;94009.44;6103693;23;20048;-92
2022/08/07 07:21:19;;;;;;;9.55;1.00;;;;;;;24.48;49.49;94011.78;6103547;23;20032;-91
2022/08/07 07:23:45;;;;;;;4.72;0.82;;;;;;;24.49;49.33;94018.06;6106537;23;20017;-91
2022/08/07 07:26:13;;;;;;;1.73;0.70;;;;;;;24.48;49.48;94009.03;6106593;23;20400;-91
2022/08/07 07:28:42;;;;;;;3.20;0.50;;;;;;;24.47;49.38;94013.06;6105904;23;20059;-93
2022/08/07 07:31:17;;;;;;;1.85;0.68;;;;;;;24.47;49.85;94013.06;6106810;23;20020;-91
2022/08/07 07:33:42;;;;;;;2.88;0.55;;;;;;;24.47;49.55;94009.56;6105033;23;20104;-91
2022/08/07 07:36:08;;;;;;;3.60;0.85;;;;;;;24.45;49.43;94010.13;6129242;23;20021;-91
2022/08/07 07:38:33;;;;;;;3.75;0.57;;;;;;;24.46;49.22;94006.09;6130994;23;20021;-91
2022/08/07 07:41:00;;;;;;;0.73;0.40;;;;;;;24.46;49.65;94006.09;6128495;23;20024;-92
2022/08/07 07:43:26;;;;;;;4.32;0.73;;;;;;;24.46;49.34;93992.28;6106148;23;20017;-92
2022/08/07 07:45:52;;;;;;;1.42;0.77;;;;;;;24.47;49.41;93998.50;6104905;23;20028;-93
2022/08/07 07:48:19;;;;;;;2.10;0.52;;;;;;;24.49;49.39;93980.13;6127567;23;20020;-92
2022/08/07 07:50:46;;;;;;;1.23;0.63;;;;;;;24.48;49.33;93992.44;6130730;23;20048;-91
2022/08/07 07:53:11;;;;;;;1.15;0.60;;;;;;;24.48;49.48;93988.94;6105431;23;20081;-91
2022/08/07 07:55:37;;;;;;;2.88;0.80;;;;;;;24.53;49.27;93988.06;6106966;23;20409;-91
2022/08/07 07:58:02;;;;;;;81.22;62.88;;;;;;;24.56;49.73;93990.50;6107043;23;20020;-90
2022/08/07 08:00:28;;;;;;;65.78;55.10;;;;;;;24.50;49.53;93980.84;6104815;23;20024;-90
2022/08/07 08:02:56;;;;;;;22.50;14.30;;;;;;;24.52;49.78;93978.31;6106056;23;20017;-92
2022/08/07 08:05:23;;;;;;;39.70;32.28;;;;;;;24.53;49.39;93988.81;6108469;23;20079;-91
2022/08/07 08:07:49;;;;;;;6.38;5.00;;;;;;;24.55;49.19;93989.03;6083454;23;20029;-92
2022/08/07 08:10:14;;;;;;;224.98;167.88;;;;;;;24.56;49.37;93996.03;6155112;23;20016;-92
2022/08/07 08:12:40;;;;;;;10.23;5.65;;;;;;;24.52;49.20;93984.56;6104377;23;20041;-91
2022/08/07 08:15:06;;;;;;;3.25;1.50;;;;;;;24.53;49.21;93996.38;6128378;23;20100;-92
2022/08/07 08:17:33;;;;;;;3.20;1.42;;;;;;;24.51;49.21;93988.63;6103497;23;20060;-92
2022/08/07 08:20:02;;;;;;;2.25;1.17;;;;;;;24.54;48.84;93987.53;6099051;23;20020;-91
2022/08/07 08:27:56;;;;;;;3.05;1.73;;;;;;;24.54;49.25;93986.81;6136683;23;20031;-91
2022/08/07 08:30:22;;;;;;;3.17;2.13;;;;;;;24.54;49.34;93987.53;6154164;23;20021;-90
2022/08/07 08:32:51;;;;;;;2.83;2.08;;;;;;;24.54;49.24;93984.03;6127230;23;20076;-91
2022/08/07 08:35:22;;;;;;;2.33;2.10;;;;;;;24.54;49.44;93981.28;6089765;23;20029;-91
2022/08/07 08:37:47;;;;;;;3.80;2.45;;;;;;;24.54;49.36;93989.56;6095307;23;20022;-91
2022/08/07 08:40:17;;;;;;;3.05;2.15;;;;;;;24.54;49.18;93993.06;6096237;23;20018;-92
2022/08/07 08:42:59;;;;;;;2.45;1.83;;;;;;;24.52;49.27;93984.56;6060569;23;20022;-92
2022/08/07 08:45:37;;;;;;;3.17;2.03;;;;;;;24.51;49.21;93988.63;6096824;23;20022;-91
2022/08/07 08:48:40;;;;;;;4.05;1.80;;;;;;;24.49;49.32;93987.66;6071223;23;20014;-91
2022/08/07 08:51:05;;;;;;;2.55;1.83;;;;;;;24.53;49.31;93991.59;6101689;23;20129;-90
2022/08/07 08:53:43;;;;;;;3.15;2.15;;;;;;;24.51;49.27;93982.34;6147300;23;20052;-91
2022/08/07 08:56:23;;;;;;;3.42;2.03;;;;;;;24.51;49.30;93979.56;6068179;23;20101;-91
2022/08/07 08:58:52;;;;;;;3.63;2.30;;;;;;;24.52;49.24;93990.09;6073379;23;20028;-91
2022/08/07 09:01:26;;;;;;;3.88;1.90;;;;;;;24.50;49.29;93989.16;6071619;23;20049;-91
2022/08/07 09:03:55;;;;;;;3.33;2.53;;;;;;;24.51;49.38;93990.63;6094141;23;20053;-91
2022/08/07 09:06:28;;;;;;;3.30;1.70;;;;;;;24.55;49.16;93980.72;6094648;23;20184;-91
2022/08/07 09:08:56;;;;;;;3.88;2.42;;;;;;;24.53;49.28;93974.25;6095225;23;20054;-92
2022/08/07 09:11:38;;;;;;;5.07;2.45;;;;;;;24.48;49.49;93978.63;6089357;23;20010;-92
2022/08/07 09:14:11;;;;;;;2.72;2.08;;;;;;;24.51;49.21;93976.81;6091739;23;20014;-90
2022/08/07 09:16:43;;;;;;;3.38;2.35;;;;;;;24.48;49.27;93970.34;6094596;23;20024;-91
2022/08/07 09:19:36;;;;;;;3.33;2.08;;;;;;;24.47;49.42;93976.41;6143945;23;20076;-93
2022/08/07 09:22:20;;;;;;;2.85;2.00;;;;;;;24.48;49.42;93973.09;6097192;23;20080;-91
2022/08/07 09:24:58;;;;;;;2.72;2.05;;;;;;;24.50;49.27;93972.56;6099858;23;20077;-90
2022/08/07 09:27:36;;;;;;;2.65;1.80;;;;;;;24.48;49.41;93972.34;6106031;23;20014;-91
2022/08/07 09:30:04;;;;;;;4.22;1.90;;;;;;;24.49;49.14;93971.81;6121112;23;20018;-90
2022/08/07 09:32:45;;;;;;;3.38;2.17;;;;;;;24.47;49.44;93963.31;6071654;23;20022;-91
2022/08/07 09:35:18;;;;;;;2.83;1.98;;;;;;;24.49;49.49;93969.06;6129641;23;20096;-92
2022/08/07 09:38:02;;;;;;;2.28;1.80;;;;;;;24.51;49.34;93974.78;6096903;23;20018;-92
2022/08/07 09:40:36;;;;;;;2.53;1.73;;;;;;;24.47;49.33;93957.06;6122792;23;20018;-92
2022/08/07 09:43:02;;;;;;;2.63;1.83;;;;;;;24.48;49.40;93967.56;6085297;23;20014;-92
2022/08/07 09:45:41;;;;;;;2.45;1.65;;;;;;;24.45;49.31;93967.94;6143622;23;20069;-92
2022/08/07 09:48:37;;;;;;;3.78;1.75;;;;;;;24.44;49.41;93964.41;6067247;23;20056;-92
2022/08/07 09:51:15;;;;;;;1.85;1.63;;;;;;;24.47;49.31;93968.84;6119589;23;20084;-91
2022/08/07 09:53:43;;;;;;;2.55;2.13;;;;;;;24.46;49.49;93966.66;6116628;23;20022;-91
2022/08/07 09:56:27;;;;;;;2.60;1.70;;;;;;;24.46;49.43;93972.19;6090118;23;20044;-91
2022/08/07 09:59:20;;;;;;;2.88;1.92;;;;;;;24.45;49.36;93963.16;6143848;23;20037;-92
2022/08/07 10:01:57;;;;;;;3.75;1.98;;;;;;;24.48;49.47;93962.03;6144960;23;20026;-92
2022/08/07 10:04:34;;;;;;;2.30;1.60;;;;;;;24.45;49.42;93965.16;6093747;23;20022;-90
2022/08/07 10:07:30;;;;;;;2.28;1.95;;;;;;;24.43;49.54;93962.19;6140015;23;20301;-90
2022/08/07 10:10:21;;;;;;;2.60;1.65;;;;;;;24.44;49.31;93961.66;6139154;23;20021;-90
2022/08/07 10:12:52;;;;;;;;;;;;;;;24.42;49.59;93952.41;6120608;23;20045;-90
2022/08/07 10:15:34;;;;;;;2.38;1.70;;;;;;;24.43;49.45;93953.91;6094768;23;19992;-91
2022/08/07 10:18:25;;;;;;;2.42;1.83;;;;;;;24.43;49.56;93948.38;6097760;23;20017;-91
2022/08/07 10:20:53;;;;;;;;;;;;;;;24.41;49.57;93945.41;6118702;23;20033;-92
2022/08/07 10:23:51;;;;;;;2.00;1.80;;;;;;;24.44;49.26;93944.34;6117496;23;19916;-92
2022/08/07 10:26:22;;;;;;;2.17;1.73;;;;;;;24.44;49.37;93936.03;6006701;23;20478;-90
2022/08/07 10:28:47;;;;;;;1.65;1.45;;;;;;;24.43;49.55;93935.31;6006067;23;20487;-90
2022/08/07 10:31:21;;;;;;;2.63;1.48;;;;;;;24.44;49.43;93936.78;6002410;23;20074;-91
2022/08/07 10:33:56;;;;;;;3.25;2.13;;;;;;;24.43;49.57;93935.31;5988843;23;20027;-90
2022/08/07 10:36:29;;;;;;;3.42;1.80;;;;;;;24.42;49.31;93933.81;6004961;23;20421;-92
2022/08/07 10:39:00;;;;;;;1.73;1.60;;;;;;;24.44;49.42;93936.03;6007841;23;20175;-91
2022/08/07 10:41:39;;;;;;;3.97;1.80;;;;;;;24.43;49.43;93924.25;6006993;23;20059;-90
2022/08/07 10:44:23;;;;;;;2.53;1.52;;;;;;;24.43;49.43;93931.78;6000009;23;20019;-92
2022/08/07 10:47:00;;;;;;;2.17;1.67;;;;;;;24.43;49.33;93924.25;6006429;23;20098;-91
2022/08/07 10:49:34;;;;;;;2.53;1.30;;;;;;;24.44;49.30;93925.72;6008311;23;20594;-91
2022/08/07 10:52:05;;;;;;;1.60;1.50;;;;;;;24.44;49.35;93928.50;6004775;23;20026;-92
2022/08/07 10:54:45;;;;;;;2.08;1.65;;;;;;;24.46;49.38;93919.66;5985574;23;20070;-92
2022/08/07 10:57:14;;;;;;;1.83;1.50;;;;;;;24.43;49.28;93918.72;6007681;23;20030;-91
2022/08/07 10:59:52;;;;;;;2.00;1.50;;;;;;;24.42;49.36;93911.72;6003319;23;20022;-91
2022/08/07 11:02:36;;;;;;;2.30;1.60;;;;;;;24.44;49.38;93911.91;5993241;23;20012;-91
2022/08/07 11:05:23;;;;;;;1.48;1.25;;;;;;;24.44;49.29;93914.69;6096681;23;20042;-90
2022/08/07 11:08:26;;;;;;;2.17;1.45;;;;;;;24.42;49.45;93908.94;6119556;23;20052;-91
2022/08/07 11:10:58;;;;;;;1.50;1.20;;;;;;;24.44;49.35;93909.16;6116224;23;20022;-92
2022/08/07 11:13:35;;;;;;;1.70;1.55;;;;;;;24.44;49.32;93908.41;6069286;23;20014;-91
2022/08/07 11:16:08;;;;;;;2.05;1.42;;;;;;;24.46;49.35;93900.31;6095016;23;20022;-92
2022/08/07 11:18:38;;;;;;;1.58;1.33;;;;;;;24.45;49.02;93904.38;6068061;23;20092;-90
2022/08/07 11:21:06;;;;;;;1.63;1.50;;;;;;;24.46;49.16;93897.56;6093944;23;20018;-91
2022/08/07 11:24:05;;;;;;;2.67;1.50;;;;;;;24.43;49.38;93893.09;6093391;23;20053;-91
2022/08/07 11:26:48;;;;;;;3.88;1.45;;;;;;;24.43;49.43;93895.88;6104914;23;20095;-91
2022/08/07 11:29:16;;;;;;;2.15;1.65;;;;;;;24.45;49.02;93896.81;6087561;23;20029;-91
2022/08/07 11:32:02;;;;;;;2.25;1.48;;;;;;;24.44;49.41;93897.34;6117658;23;20026;-92
2022/08/07 11:34:48;;;;;;;1.40;1.30;;;;;;;24.45;49.30;93891.28;6130498;23;20030;-91
2022/08/07 11:37:20;;;;;;;1.60;1.50;;;;;;;24.45;49.04;93885.75;6121808;23;20032;-91
2022/08/07 11:39:57;;;;;;;1.63;1.15;;;;;;;24.46;49.16;93878.22;6108663;23;20402;-90
2022/08/07 11:42:43;;;;;;;1.95;1.67;;;;;;;24.45;49.36;93885.75;6141298;23;20026;-91
2022/08/07 11:45:38;;;;;;;2.03;1.55;;;;;;;24.45;49.17;93887.78;6118301;23;20014;-91
2022/08/07 11:48:15;;;;;;;2.28;1.30;;;;;;;24.46;49.07;93892.78;6121154;23;20498;-92
2022/08/07 11:51:07;;;;;;;2.13;1.50;;;;;;;24.45;49.36;93898.84;6146052;23;20105;-92
2022/08/07 11:53:48;;;;;;;3.72;1.45;;;;;;;24.46;49.16;93886.50;6094209;23;20484;-91